createdAt,value
2022-12-09T00:02:06.324Z,31.65
2022-12-09T00:04:34.072Z,33.22
2022-12-09T00:07:01.737Z,32.20
2022-12-09T00:09:28.787Z,32.05
2022-12-09T00:11:56.213Z,30.90
2022-12-09T00:14:23.254Z,29.20
2022-12-09T00:16:50.444Z,37.38
2022-12-09T00:19:19.664Z,34.20
2022-12-09T00:21:46.906Z,34.10
2022-12-09T00:24:14.825Z,33.97
2022-12-09T00:26:43.017Z,34.10
2022-12-09T00:29:11.415Z,34.85
2022-12-09T00:31:44.357Z,31.40
2022-12-09T00:34:14.158Z,33.97
2022-12-09T00:36:41.548Z,35.30
2022-12-09T00:39:10.039Z,36.13
2022-12-09T00:41:37.535Z,37.33
2022-12-09T00:44:05.064Z,37.10
2022-12-09T00:46:32.523Z,39.63
2022-12-09T00:48:59.719Z,38.65
2022-12-09T00:51:27.125Z,40.05
2022-12-09T00:53:55.926Z,40.45
2022-12-09T00:56:28.855Z,42.80
2022-12-09T00:58:57.421Z,43.40
2022-12-09T01:01:26.662Z,42.33
2022-12-09T01:03:54.388Z,44.47
2022-12-09T01:06:23.938Z,43.85
2022-12-09T01:08:51.627Z,44.08
2022-12-09T01:11:21.627Z,43.47
2022-12-09T01:13:49.955Z,40.90
2022-12-09T01:16:24.984Z,40.85
2022-12-09T01:18:54.166Z,43.60
2022-12-09T01:21:21.490Z,41.67
2022-12-09T01:23:50.007Z,43.38
2022-12-09T01:26:20.167Z,41.22
2022-12-09T01:28:55.485Z,40.63
2022-12-09T01:31:25.214Z,43.22
2022-12-09T01:33:54.890Z,40.25
2022-12-09T01:36:25.529Z,38.83
2022-12-09T01:38:53.248Z,36.30
2022-12-09T01:41:22.159Z,38.40
2022-12-09T01:44:17.024Z,38.22
2022-12-09T01:46:45.434Z,38.53
2022-12-09T01:49:17.714Z,35.75
2022-12-09T01:51:51.986Z,34.63
2022-12-09T01:54:19.290Z,35.63
2022-12-09T01:56:49.549Z,32.10
2022-12-09T01:59:19.797Z,32.08
2022-12-09T02:01:57.476Z,31.77
2022-12-09T02:04:26.316Z,30.90
2022-12-09T02:09:39.612Z,30.35
2022-12-09T02:12:35.905Z,29.85
2022-12-09T02:15:11.153Z,29.05
2022-12-09T02:18:01.825Z,29.50
2022-12-09T02:20:57.214Z,28.75
2022-12-09T02:23:53.598Z,30.05
2022-12-09T02:26:39.341Z,28.80
2022-12-09T02:29:22.548Z,30.27
2022-12-09T02:32:16.347Z,30.85
2022-12-09T02:34:53.642Z,30.00
2022-12-09T02:37:27.801Z,30.08
2022-12-09T02:40:06.751Z,32.65
2022-12-09T02:42:40.011Z,32.67
2022-12-09T02:45:11.072Z,31.02
2022-12-09T02:47:47.484Z,32.08
2022-12-09T02:50:19.113Z,32.42
2022-12-09T02:52:47.862Z,30.98
2022-12-09T02:55:19.472Z,32.88
2022-12-09T02:57:54.274Z,34.25
2022-12-09T03:00:22.254Z,31.75
2022-12-09T03:02:53.496Z,30.80
2022-12-09T03:05:36.093Z,24.02
2022-12-09T03:08:28.372Z,30.38
2022-12-09T03:11:03.075Z,31.23
2022-12-09T03:13:46.212Z,31.05
2022-12-09T03:16:47.092Z,32.45
2022-12-09T03:19:25.955Z,31.50
2022-12-09T03:21:57.310Z,34.10
2022-12-09T03:24:42.188Z,34.90
2022-12-09T03:27:15.738Z,33.72
2022-12-09T03:29:48.233Z,34.92
2022-12-09T03:32:18.193Z,33.17
2022-12-09T03:34:48.229Z,32.58
2022-12-09T03:37:18.366Z,34.35
2022-12-09T03:39:58.615Z,32.58
2022-12-09T03:42:37.741Z,31.50
2022-12-09T03:45:10.244Z,31.35
2022-12-09T03:47:38.288Z,31.38
2022-12-09T03:50:07.057Z,32.38
2022-12-09T03:53:00.364Z,33.20
2022-12-09T03:55:48.278Z,33.22
2022-12-09T03:58:17.353Z,34.33
2022-12-09T04:00:45.589Z,33.97
2022-12-09T04:03:14.039Z,34.30
2022-12-09T04:05:43.235Z,34.22
2022-12-09T04:08:10.953Z,33.58
2022-12-09T04:10:39.587Z,35.35
2022-12-09T04:13:06.828Z,34.25
2022-12-09T04:15:34.096Z,33.92
2022-12-09T04:18:01.549Z,34.00
2022-12-09T04:20:28.638Z,34.45
2022-12-09T04:22:56.545Z,32.38
2022-12-09T04:25:23.903Z,33.28
2022-12-09T04:27:52.220Z,32.83
2022-12-09T04:30:19.279Z,32.05
2022-12-09T04:32:46.745Z,31.60
2022-12-09T04:35:14.298Z,30.10
2022-12-09T04:37:41.484Z,32.97
2022-12-09T04:40:10.233Z,31.13
2022-12-09T04:42:37.743Z,31.98
2022-12-09T04:45:05.535Z,30.73
2022-12-09T04:47:34.428Z,29.27
2022-12-09T04:50:07.780Z,30.60
2022-12-09T04:52:42.568Z,31.05
2022-12-09T04:55:10.074Z,31.63
2022-12-09T04:57:42.306Z,29.95
2022-12-09T05:00:13.954Z,29.73
2022-12-09T05:02:41.730Z,30.05
2022-12-09T05:05:09.954Z,29.63
2022-12-09T05:07:37.508Z,28.42
2022-12-09T05:10:06.526Z,32.90
2022-12-09T05:12:34.456Z,31.65
2022-12-09T05:15:02.086Z,30.33
2022-12-09T05:17:29.680Z,31.73
2022-12-09T05:19:56.902Z,31.75
2022-12-09T05:22:24.487Z,29.67
2022-12-09T05:24:52.008Z,31.25
2022-12-09T05:27:19.225Z,33.03
2022-12-09T05:29:46.984Z,31.55
2022-12-09T05:32:14.596Z,30.88
2022-12-09T05:34:41.970Z,31.92
2022-12-09T05:37:13.515Z,30.83
2022-12-09T05:40:07.485Z,29.33
2022-12-09T05:42:40.943Z,30.33
2022-12-09T05:45:09.017Z,30.42
2022-12-09T05:47:37.395Z,30.17
2022-12-09T05:50:33.069Z,28.48
2022-12-09T05:53:03.273Z,30.90
2022-12-09T05:55:30.760Z,29.75
2022-12-09T05:57:58.575Z,30.63
2022-12-09T06:00:26.257Z,30.05
2022-12-09T06:02:53.493Z,31.77
2022-12-09T06:05:21.164Z,29.60
2022-12-09T06:07:49.027Z,29.23
2022-12-09T06:10:17.330Z,28.25
2022-12-09T06:12:44.825Z,29.20
2022-12-09T06:15:15.641Z,30.23
2022-12-09T06:17:46.043Z,29.70
2022-12-09T06:20:13.973Z,32.17
2022-12-09T06:22:53.528Z,32.25
2022-12-09T06:25:41.105Z,30.42
2022-12-09T06:28:14.104Z,33.53
2022-12-09T06:30:42.118Z,32.67
2022-12-09T06:33:36.931Z,29.88
2022-12-09T06:36:01.605Z,32.25
2022-12-09T06:38:29.504Z,31.58
2022-12-09T06:41:17.893Z,30.00
2022-12-09T06:43:45.444Z,29.88
2022-12-09T06:46:18.073Z,30.42
2022-12-09T06:48:53.039Z,30.70
2022-12-09T06:52:12.361Z,30.40
2022-12-09T06:54:55.686Z,30.17
2022-12-09T06:57:27.447Z,28.98
2022-12-09T06:59:55.051Z,29.77
2022-12-09T07:02:23.802Z,30.45
2022-12-09T07:04:55.596Z,35.10
2022-12-09T07:07:23.334Z,31.02
2022-12-09T07:09:50.556Z,30.88
2022-12-09T07:12:22.439Z,30.70
2022-12-09T07:14:49.780Z,30.20
2022-12-09T07:17:23.998Z,28.85
2022-12-09T07:19:53.564Z,30.05
2022-12-09T07:22:20.963Z,29.02
2022-12-09T07:25:02.806Z,30.60
2022-12-09T07:27:30.973Z,30.40
2022-12-09T07:29:58.554Z,30.65
2022-12-09T07:32:30.625Z,32.53
2022-12-09T07:35:00.406Z,31.17
2022-12-09T07:37:27.702Z,29.40
2022-12-09T07:39:56.475Z,26.90
2022-12-09T07:42:23.970Z,27.67
2022-12-09T07:44:55.225Z,29.73
2022-12-09T07:47:35.019Z,28.05
2022-12-09T07:50:06.497Z,30.08
2022-12-09T07:52:34.523Z,30.80
2022-12-09T07:55:03.984Z,28.60
2022-12-09T07:57:35.327Z,29.77
2022-12-09T08:00:28.182Z,30.80
2022-12-09T08:02:57.844Z,29.30
2022-12-09T08:05:25.622Z,25.77
2022-12-09T08:07:52.899Z,24.65
2022-12-09T08:10:24.577Z,25.45
2022-12-09T08:12:56.076Z,26.65
2022-12-09T08:19:32.262Z,17.90
2022-12-09T08:22:01.690Z,25.77
2022-12-09T08:24:41.783Z,25.42
2022-12-09T08:27:09.129Z,30.63
2022-12-09T08:29:38.050Z,28.20
2022-12-09T08:32:06.141Z,25.48
2022-12-09T08:34:33.371Z,26.45
2022-12-09T08:37:02.489Z,27.10
2022-12-09T08:39:30.397Z,24.10
2022-12-09T08:42:01.557Z,24.55
2022-12-09T08:44:29.176Z,17.20
2022-12-09T08:46:57.353Z,23.10
2022-12-09T08:49:25.145Z,25.08
2022-12-09T08:52:13.608Z,22.85
2022-12-09T08:54:48.757Z,25.17
2022-12-09T08:57:28.810Z,24.83
2022-12-09T09:00:10.757Z,24.80
2022-12-09T09:05:37.520Z,23.75
2022-12-09T09:08:05.658Z,23.10
2022-12-09T09:10:35.701Z,22.88
2022-12-09T09:13:04.306Z,23.15
2022-12-09T09:15:32.044Z,22.10
2022-12-09T09:17:59.777Z,24.20
2022-12-09T09:29:07.253Z,25.45
2022-12-09T09:31:59.220Z,22.40
2022-12-09T09:34:29.235Z,22.02
2022-12-09T09:36:57.674Z,21.88
2022-12-09T09:39:25.729Z,24.13
2022-12-09T09:42:08.768Z,23.20
2022-12-09T09:44:55.079Z,21.60
2022-12-09T09:47:39.614Z,21.38
2022-12-09T09:50:31.391Z,22.73
2022-12-09T09:53:02.529Z,22.58
2022-12-09T09:55:51.823Z,22.77
2022-12-09T09:58:47.275Z,21.83
2022-12-09T10:01:18.726Z,21.05
2022-12-09T10:04:05.374Z,21.92
2022-12-09T10:06:44.605Z,20.30
2022-12-09T10:09:23.727Z,19.55
2022-12-09T10:12:06.365Z,20.92
2022-12-09T10:14:59.968Z,18.80
2022-12-09T10:17:29.240Z,19.17
2022-12-09T10:20:21.407Z,17.60
2022-12-09T10:22:57.406Z,19.40
2022-12-09T10:25:28.399Z,18.08
2022-12-09T10:28:05.925Z,18.37
2022-12-09T10:30:39.876Z,18.70
2022-12-09T10:33:13.660Z,18.85
2022-12-09T10:35:41.695Z,16.98
2022-12-09T10:38:15.003Z,17.90
2022-12-09T10:40:52.355Z,19.15
2022-12-09T10:43:37.491Z,19.90
2022-12-09T10:46:24.369Z,20.08
2022-12-09T10:48:59.025Z,19.92
2022-12-09T10:51:50.991Z,19.00
2022-12-09T10:54:40.112Z,19.30
2022-12-09T10:57:22.745Z,19.52
2022-12-09T11:00:09.429Z,18.33
2022-12-09T11:02:36.828Z,18.35
2022-12-09T11:05:18.502Z,19.45
2022-12-09T11:07:51.433Z,18.80
2022-12-09T11:10:25.377Z,16.90
2022-12-09T11:13:20.194Z,16.98
2022-12-09T11:15:54.418Z,16.08
2022-12-09T11:18:31.209Z,15.48
2022-12-09T11:21:27.445Z,19.08
2022-12-09T11:24:02.596Z,19.95
2022-12-09T11:26:36.633Z,20.02
2022-12-09T11:29:24.124Z,18.33
2022-12-09T11:31:51.496Z,17.23
2022-12-09T11:34:24.339Z,18.85
2022-12-09T11:36:58.501Z,19.17
2022-12-09T11:39:35.456Z,18.80
2022-12-09T11:42:19.008Z,17.73
2022-12-09T11:45:00.406Z,17.40
2022-12-09T11:48:21.257Z,17.08
2022-12-09T11:50:33.322Z,15.90
2022-12-09T11:53:12.797Z,16.50
2022-12-09T11:55:49.696Z,16.77
2022-12-09T11:58:28.760Z,17.02
2022-12-09T12:01:04.333Z,18.17
2022-12-09T12:03:44.981Z,18.05
2022-12-09T12:06:23.338Z,17.63
2022-12-09T12:08:56.466Z,19.08
2022-12-09T12:11:38.585Z,20.45
2022-12-09T12:14:17.358Z,18.88
2022-12-09T12:17:18.427Z,18.55
2022-12-09T12:19:52.022Z,19.38
2022-12-09T12:22:34.481Z,17.05
2022-12-09T12:25:23.721Z,17.67
2022-12-09T12:27:56.447Z,17.88
2022-12-09T12:30:41.350Z,20.42
2022-12-09T12:36:42.691Z,19.00
2022-12-09T12:39:50.816Z,19.33
2022-12-09T12:43:06.451Z,17.77
2022-12-09T12:46:04.226Z,15.02
2022-12-09T12:49:14.939Z,13.40
2022-12-09T12:51:54.250Z,12.38
2022-12-09T12:54:45.993Z,12.07
2022-12-09T12:57:29.901Z,8.98
2022-12-09T13:00:20.863Z,11.95
2022-12-09T13:03:14.948Z,11.98
2022-12-09T13:05:45.397Z,11.95
2022-12-09T13:08:24.631Z,12.27
2022-12-09T13:11:01.158Z,11.98
2022-12-09T13:13:44.768Z,12.70
2022-12-09T13:16:29.444Z,11.43
2022-12-09T13:19:22.228Z,11.35
2022-12-09T13:21:49.873Z,11.52
2022-12-09T13:24:31.041Z,11.05
2022-12-09T13:27:06.255Z,12.20
2022-12-09T13:29:47.490Z,12.75
2022-12-09T13:32:28.232Z,9.93
2022-12-09T13:35:19.248Z,14.50
2022-12-09T13:37:46.819Z,19.67
2022-12-09T13:40:36.858Z,16.85
2022-12-09T13:43:03.857Z,19.48
2022-12-09T13:45:34.014Z,18.20
2022-12-09T13:48:16.957Z,15.05
2022-12-09T13:50:57.509Z,15.10
2022-12-09T13:53:33.801Z,13.30
2022-12-09T13:56:04.054Z,12.90
2022-12-09T13:58:43.242Z,12.63
2022-12-09T14:01:18.221Z,13.88
2022-12-09T14:03:58.174Z,14.60
2022-12-09T14:06:47.054Z,14.65
2022-12-09T14:09:29.401Z,12.80
2022-12-09T14:12:00.748Z,13.23
2022-12-09T14:14:27.974Z,12.45
2022-12-09T14:17:00.442Z,13.20
2022-12-09T14:19:52.506Z,12.95
2022-12-09T14:22:19.869Z,13.90
2022-12-09T14:24:50.737Z,13.82
2022-12-09T14:27:31.203Z,14.73
2022-12-09T14:30:25.715Z,15.27
2022-12-09T14:32:53.667Z,14.90
2022-12-09T14:35:41.533Z,14.90
2022-12-09T14:38:27.308Z,13.00
2022-12-09T14:41:03.155Z,12.30
2022-12-09T14:43:55.316Z,11.60
2022-12-09T14:46:35.631Z,12.73
2022-12-09T14:49:04.679Z,14.27
2022-12-09T14:51:37.450Z,14.02
2022-12-09T14:54:12.292Z,12.38
2022-12-09T14:56:39.489Z,12.15
2022-12-09T14:59:09.866Z,13.25
2022-12-09T15:01:48.904Z,13.20
2022-12-09T15:04:37.106Z,12.43
2022-12-09T15:07:10.325Z,13.65
2022-12-09T15:09:46.700Z,12.88
2022-12-09T15:12:13.804Z,12.13
2022-12-09T15:14:44.296Z,11.90
2022-12-09T15:17:24.829Z,11.43
2022-12-09T15:20:00.076Z,12.93
2022-12-09T15:22:38.967Z,13.63
2022-12-09T15:25:06.069Z,12.55
2022-12-09T15:27:33.235Z,13.35
2022-12-09T15:30:20.662Z,13.02
2022-12-09T15:32:47.707Z,13.57
2022-12-09T15:35:23.786Z,15.30
2022-12-09T15:37:55.322Z,17.05
2022-12-09T15:40:23.199Z,15.77
2022-12-09T15:42:53.750Z,15.13
2022-12-09T15:45:24.851Z,14.48
2022-12-09T15:47:54.603Z,14.00
2022-12-09T15:50:47.113Z,14.32
2022-12-09T15:53:32.012Z,16.02
2022-12-09T15:56:11.967Z,16.05
2022-12-09T15:58:45.486Z,15.10
2022-12-09T16:01:24.325Z,13.70
2022-12-09T16:03:55.763Z,13.57
2022-12-09T16:06:37.641Z,14.18
2022-12-09T16:09:14.645Z,14.85
2022-12-09T16:11:49.430Z,13.52
2022-12-09T16:14:18.782Z,13.50
2022-12-09T16:17:02.654Z,14.07
2022-12-09T16:19:46.997Z,13.98
2022-12-09T16:22:33.299Z,17.83
2022-12-09T16:25:19.908Z,23.70
2022-12-09T16:27:50.537Z,22.08
2022-12-09T16:30:21.352Z,19.52
2022-12-09T16:32:52.051Z,19.38
2022-12-09T16:35:40.710Z,17.45
2022-12-09T16:38:10.656Z,17.15
2022-12-09T16:40:47.023Z,22.17
2022-12-09T16:43:24.990Z,20.35
2022-12-09T16:45:57.816Z,20.63
2022-12-09T16:48:26.992Z,20.38
2022-12-09T16:50:56.454Z,19.58
2022-12-09T16:53:38.033Z,17.92
2022-12-09T16:56:05.567Z,18.92
2022-12-09T17:02:10.609Z,18.88
2022-12-09T17:05:00.694Z,17.33
2022-12-09T17:07:28.224Z,17.05
2022-12-09T17:09:55.224Z,17.00
2022-12-09T17:12:22.319Z,17.83
2022-12-09T17:14:50.041Z,20.25
2022-12-09T17:17:17.366Z,19.45
2022-12-09T17:19:44.305Z,16.02
2022-12-09T17:22:37.201Z,17.00
2022-12-09T17:25:07.487Z,18.48
2022-12-09T17:27:34.930Z,29.95
2022-12-09T17:30:02.248Z,26.48
2022-12-09T17:32:29.154Z,21.67
2022-12-09T17:34:56.358Z,21.02
2022-12-09T17:37:23.280Z,19.48
2022-12-09T17:39:55.606Z,20.95
2022-12-09T17:42:27.094Z,20.23
2022-12-09T17:44:53.983Z,20.33
2022-12-09T17:47:20.896Z,23.00
2022-12-09T17:49:47.920Z,22.88
2022-12-09T17:52:16.424Z,20.92
2022-12-09T17:54:43.601Z,17.38
2022-12-09T17:57:12.654Z,17.30
2022-12-09T17:59:41.279Z,17.38
2022-12-09T18:02:11.352Z,19.85
2022-12-09T18:04:39.811Z,17.25
2022-12-09T18:07:08.416Z,16.05
2022-12-09T18:09:36.728Z,13.32
2022-12-09T18:12:24.352Z,8.35
2022-12-09T18:14:54.033Z,9.32
2022-12-09T18:19:54.477Z,9.50
2022-12-09T18:22:22.115Z,15.68
2022-12-09T18:24:51.398Z,13.52
2022-12-09T18:27:18.613Z,13.45
2022-12-09T18:29:48.638Z,30.70
2022-12-09T18:32:17.403Z,20.05
2022-12-09T18:34:46.474Z,20.25
2022-12-09T18:40:08.330Z,9.68
2022-12-09T18:42:42.294Z,9.77
2022-12-09T18:45:16.852Z,9.02
2022-12-09T18:48:03.029Z,14.82
2022-12-09T18:50:37.305Z,9.27
2022-12-09T18:56:00.846Z,17.13
2022-12-09T18:58:57.557Z,11.40
2022-12-09T19:01:31.534Z,13.60
2022-12-09T19:04:04.685Z,11.93
2022-12-09T19:06:44.194Z,13.70
2022-12-09T19:13:05.025Z,12.02
2022-12-09T19:15:33.978Z,11.98
2022-12-09T19:18:03.160Z,10.60
2022-12-09T19:20:32.196Z,11.13
2022-12-09T19:23:17.868Z,13.77
2022-12-09T19:25:45.182Z,12.77
2022-12-09T19:28:17.571Z,12.07
2022-12-09T19:30:49.776Z,12.55
2022-12-09T19:33:17.283Z,10.70
2022-12-09T19:35:44.519Z,10.52
2022-12-09T19:38:11.586Z,9.48
2022-12-09T19:40:38.746Z,9.60
2022-12-09T19:43:05.890Z,9.48
2022-12-09T19:45:33.806Z,9.70
2022-12-09T19:48:00.853Z,9.20
2022-12-09T19:50:28.495Z,9.90
2022-12-09T19:52:55.608Z,9.30
2022-12-09T19:55:28.813Z,12.25
2022-12-09T19:57:59.163Z,9.73
2022-12-09T20:00:27.506Z,9.35
2022-12-09T20:02:55.684Z,8.63
2022-12-09T20:05:22.811Z,9.10
2022-12-09T20:07:50.643Z,9.13
2022-12-09T20:10:18.244Z,9.68
2022-12-09T20:12:45.336Z,10.07
2022-12-09T20:15:18.895Z,12.57
2022-12-09T20:17:46.985Z,15.10
2022-12-09T20:20:13.904Z,13.35
2022-12-09T20:22:40.975Z,12.95
2022-12-09T20:25:08.299Z,13.00
2022-12-09T20:27:35.361Z,13.90
2022-12-09T20:30:09.791Z,12.93
2022-12-09T20:32:39.467Z,13.10
2022-12-09T20:35:08.778Z,16.13
2022-12-09T20:37:36.974Z,13.68
2022-12-09T20:40:14.818Z,15.32
2022-12-09T20:42:50.741Z,16.27
2022-12-09T20:45:17.693Z,16.98
2022-12-09T20:47:55.191Z,15.80
2022-12-09T20:50:38.208Z,15.30
2022-12-09T20:53:05.753Z,12.80
2022-12-09T20:55:39.583Z,15.48
2022-12-09T20:58:15.606Z,13.93
2022-12-09T21:00:45.821Z,12.70
2022-12-09T21:03:12.928Z,14.15
2022-12-09T21:05:44.181Z,14.05
2022-12-09T21:08:11.546Z,14.30
2022-12-09T21:10:43.733Z,16.42
2022-12-09T21:13:14.712Z,13.00
2022-12-09T21:15:44.145Z,18.38
2022-12-09T21:18:14.612Z,18.63
2022-12-09T21:20:44.464Z,13.65
2022-12-09T21:23:34.093Z,12.00
2022-12-09T21:26:20.758Z,10.80
2022-12-09T21:28:53.680Z,13.88
2022-12-09T21:31:23.591Z,11.90
2022-12-09T21:33:52.996Z,11.52
2022-12-09T21:36:22.652Z,14.13
2022-12-09T21:38:51.614Z,15.85
2022-12-09T21:41:22.587Z,15.25
2022-12-09T21:43:50.707Z,13.23
2022-12-09T21:46:21.043Z,11.23
2022-12-09T21:48:58.575Z,11.25
2022-12-09T21:51:31.203Z,10.90
2022-12-09T21:53:58.834Z,10.48
2022-12-09T21:56:30.751Z,10.73
2022-12-09T22:01:38.054Z,11.15
2022-12-09T22:04:18.221Z,11.73
2022-12-09T22:06:47.868Z,11.88
2022-12-09T22:09:16.212Z,10.18
2022-12-09T22:11:43.306Z,11.77
2022-12-09T22:14:11.188Z,12.15
2022-12-09T22:16:42.357Z,15.93
2022-12-09T22:19:26.009Z,23.83
2022-12-09T22:21:53.123Z,25.65
2022-12-09T22:24:21.467Z,19.88
2022-12-09T22:26:48.483Z,16.38
2022-12-09T22:29:17.171Z,13.30
2022-12-09T22:31:48.138Z,12.35
2022-12-09T22:34:20.199Z,12.10
2022-12-09T22:36:49.332Z,11.20
2022-12-09T22:39:19.234Z,11.50
2022-12-09T22:41:46.748Z,12.02
2022-12-09T22:44:17.132Z,13.95
2022-12-09T22:46:45.052Z,14.80
2022-12-09T22:49:16.532Z,17.70
2022-12-09T22:51:44.334Z,19.40
2022-12-09T22:54:11.754Z,13.68
2022-12-09T22:56:41.221Z,10.93
2022-12-09T22:59:08.724Z,11.63
2022-12-09T23:01:37.405Z,11.73
2022-12-09T23:04:06.036Z,11.68
2022-12-09T23:06:39.134Z,11.65
2022-12-09T23:09:11.527Z,11.90
2022-12-09T23:11:38.730Z,13.25
2022-12-09T23:14:05.778Z,14.30
2022-12-09T23:16:32.764Z,15.23
2022-12-09T23:18:59.937Z,16.38
2022-12-09T23:21:32.935Z,16.38
2022-12-09T23:24:02.215Z,18.00
2022-12-09T23:26:31.179Z,18.77
2022-12-09T23:29:01.267Z,17.60
2022-12-09T23:31:37.088Z,19.35
2022-12-09T23:34:05.754Z,19.52
2022-12-09T23:36:38.401Z,18.33
2022-12-09T23:39:09.795Z,18.90
2022-12-09T23:41:40.985Z,24.08
2022-12-09T23:44:10.537Z,16.27
2022-12-09T23:46:38.092Z,23.52
2022-12-09T23:49:06.624Z,21.05
2022-12-09T23:51:35.572Z,19.27
2022-12-09T23:54:04.684Z,17.52
2022-12-09T23:56:34.888Z,17.52
2022-12-09T23:59:06.871Z,19.95
